Fonda, Vermont
Current Conditions -  °F | °C
As of 11:15 AM on Saturday 25 Oct 2014 (Local Time) from KFSO Reporting Station
Overcast Overcast  
Wind Chill: 51°   Ceiling: 4300
Heat Index: 51°   Visibility: 10mi
Dew Point: 42°   Wind: 8mph
Humidity: 71%   Direction: 220°SW
Pressure: 29.71"   Gusts: NA
Location:  44.9002°N, 73.1493°W
Report Text: KFSO 251515Z AUTO 22007KT 10SM OVC043 10/05 A2971 RMK AO2 T01040054
Loading
Personal Weather Stations






























Interactive Weather Map
Tropical Storm Tracking
New forecast layout! Learn more

10-Day Weather Forecast

Advertisements
Track Severe Weather on mobile